Mount Vernon, Ohio
Current Conditions -  °F | °C
As of 3:56 PM on Sunday 23 Nov 2014 (Local Time) from K4I3 Reporting Station
Clear Clear  
Wind Chill: 59°   Ceiling: Unl
Heat Index: 59°   Visibility: 10mi
Dew Point: 41°   Wind: 9mph
Humidity: 51%   Direction: 120°ESE
Pressure: 29.74"   Gusts: NA
Location:  40.39°N, 82.48°W
Report Text: K4I3 232056Z AUTO 12008KT 10SM CLR 15/05 A2974 RMK AO2
Loading
Personal Weather Stations






























Interactive Weather Map New forecast layout! Learn more

10-Day Weather Forecast

Advertisements
Track Severe Weather on mobile